首页
METAR-TAF:

METAR-TAF

机场 :

South St. Paul Municipal Airport (Richard E. Fleming Field)

South St. Paul, 明尼蘇達州, 美国

纬度: 44-51-26N, 经度: 093-01-58W, 海拔: 250米

当前天气观测

该预报发布于7分钟前的06:55 UTC
静风
温度 5°C
湿度 81%
气压 1008 hPa
能見度: 16.1公里
天空无云

METAR: KSGS 200655Z AUTO 00000KT 10SM CLR 05/02 A2976 RMK AO2 T00470023

时间: 02:02 (07:02 UTC)


TAF: 丢失

超过4000个机场的气象观测和天气预报(METAR&TAF报告)。

可查询的气象台以黄色和红色小点在地图上表示。

将鼠标移到小点上方,可查看气象台名称。

然后点击查看天气观测和预报。

如需切换地图:点击带黑十字的绿色按钮放大地图;点击带横线的绿色按钮缩小地图;或者点击绿色箭头查看邻近地区的地图。


METAR-TAF: